sensor_id;sensor_type;location;lat;lon;timestamp;P1;durP1;ratioP1;P2;durP2;ratioP2
68940;SDS011;55982;51.476;7.552;2022-08-19T00:00:16;19.65;;;14.82;;
68940;SDS011;55982;51.476;7.552;2022-08-19T00:02:42;20.90;;;15.75;;
68940;SDS011;55982;51.476;7.552;2022-08-19T00:05:08;18.92;;;15.23;;
68940;SDS011;55982;51.476;7.552;2022-08-19T00:07:35;16.45;;;14.52;;
68940;SDS011;55982;51.476;7.552;2022-08-19T00:10:00;19.88;;;14.75;;
68940;SDS011;55982;51.476;7.552;2022-08-19T00:12:26;19.42;;;14.20;;
68940;SDS011;55982;51.476;7.552;2022-08-19T00:14:52;16.45;;;14.70;;
68940;SDS011;55982;51.476;7.552;2022-08-19T00:17:19;20.15;;;14.07;;
68940;SDS011;55982;51.476;7.552;2022-08-19T00:19:45;16.08;;;14.02;;
68940;SDS011;55982;51.476;7.552;2022-08-19T00:22:10;14.95;;;13.35;;
68940;SDS011;55982;51.476;7.552;2022-08-19T00:24:36;17.13;;;13.98;;
68940;SDS011;55982;51.476;7.552;2022-08-19T00:27:03;18.35;;;15.00;;
68940;SDS011;55982;51.476;7.552;2022-08-19T00:29:28;17.65;;;14.10;;
68940;SDS011;55982;51.476;7.552;2022-08-19T00:31:54;20.55;;;14.50;;
68940;SDS011;55982;51.476;7.552;2022-08-19T00:34:21;20.13;;;14.98;;
68940;SDS011;55982;51.476;7.552;2022-08-19T00:36:47;18.80;;;16.17;;
68940;SDS011;55982;51.476;7.552;2022-08-19T00:39:14;19.25;;;15.13;;
68940;SDS011;55982;51.476;7.552;2022-08-19T00:41:41;18.83;;;14.82;;
68940;SDS011;55982;51.476;7.552;2022-08-19T00:44:14;17.92;;;14.77;;
68940;SDS011;55982;51.476;7.552;2022-08-19T00:46:43;17.23;;;14.85;;
68940;SDS011;55982;51.476;7.552;2022-08-19T00:49:22;18.70;;;15.32;;
68940;SDS011;55982;51.476;7.552;2022-08-19T00:51:57;23.85;;;15.13;;
68940;SDS011;55982;51.476;7.552;2022-08-19T00:54:26;20.58;;;15.93;;
68940;SDS011;55982;51.476;7.552;2022-08-19T00:56:53;19.50;;;14.07;;
68940;SDS011;55982;51.476;7.552;2022-08-19T00:59:18;16.85;;;14.25;;
68940;SDS011;55982;51.476;7.552;2022-08-19T01:01:45;21.27;;;16.25;;
68940;SDS011;55982;51.476;7.552;2022-08-19T01:04:12;19.35;;;15.70;;
68940;SDS011;55982;51.476;7.552;2022-08-19T01:06:38;17.73;;;14.27;;
68940;SDS011;55982;51.476;7.552;2022-08-19T01:09:05;16.35;;;14.35;;
68940;SDS011;55982;51.476;7.552;2022-08-19T01:11:33;20.77;;;15.88;;
68940;SDS011;55982;51.476;7.552;2022-08-19T01:14:00;18.42;;;15.48;;
68940;SDS011;55982;51.476;7.552;2022-08-19T01:16:26;19.83;;;16.23;;
68940;SDS011;55982;51.476;7.552;2022-08-19T01:18:54;22.52;;;16.73;;
68940;SDS011;55982;51.476;7.552;2022-08-19T01:21:33;21.58;;;17.50;;
68940;SDS011;55982;51.476;7.552;2022-08-19T01:24:02;24.88;;;19.27;;
68940;SDS011;55982;51.476;7.552;2022-08-19T01:26:29;20.35;;;16.88;;
68940;SDS011;55982;51.476;7.552;2022-08-19T01:28:55;25.15;;;17.63;;
68940;SDS011;55982;51.476;7.552;2022-08-19T01:31:25;23.35;;;17.45;;
68940;SDS011;55982;51.476;7.552;2022-08-19T01:33:53;24.30;;;18.45;;
68940;SDS011;55982;51.476;7.552;2022-08-19T01:36:32;22.85;;;18.38;;
68940;SDS011;55982;51.476;7.552;2022-08-19T01:39:01;21.90;;;16.02;;
68940;SDS011;55982;51.476;7.552;2022-08-19T01:41:28;21.15;;;16.77;;
68940;SDS011;55982;51.476;7.552;2022-08-19T01:43:54;23.15;;;17.45;;
68940;SDS011;55982;51.476;7.552;2022-08-19T01:46:21;23.45;;;17.77;;
68940;SDS011;55982;51.476;7.552;2022-08-19T01:48:46;22.25;;;17.85;;
68940;SDS011;55982;51.476;7.552;2022-08-19T01:51:12;24.42;;;18.42;;
68940;SDS011;55982;51.476;7.552;2022-08-19T01:53:38;24.80;;;18.50;;
68940;SDS011;55982;51.476;7.552;2022-08-19T01:56:07;26.42;;;19.67;;
68940;SDS011;55982;51.476;7.552;2022-08-19T01:58:37;22.30;;;17.48;;
68940;SDS011;55982;51.476;7.552;2022-08-19T02:01:05;21.20;;;17.17;;
68940;SDS011;55982;51.476;7.552;2022-08-19T02:03:31;22.00;;;18.13;;
68940;SDS011;55982;51.476;7.552;2022-08-19T02:06:01;26.35;;;19.30;;
68940;SDS011;55982;51.476;7.552;2022-08-19T02:08:29;23.77;;;16.98;;
68940;SDS011;55982;51.476;7.552;2022-08-19T02:10:55;25.55;;;17.52;;
68940;SDS011;55982;51.476;7.552;2022-08-19T02:13:21;25.17;;;18.42;;
68940;SDS011;55982;51.476;7.552;2022-08-19T02:15:47;23.95;;;17.48;;
68940;SDS011;55982;51.476;7.552;2022-08-19T02:18:13;25.02;;;17.73;;
68940;SDS011;55982;51.476;7.552;2022-08-19T02:20:39;23.65;;;17.70;;
68940;SDS011;55982;51.476;7.552;2022-08-19T02:23:07;21.05;;;16.95;;
68940;SDS011;55982;51.476;7.552;2022-08-19T02:25:32;21.27;;;17.23;;
68940;SDS011;55982;51.476;7.552;2022-08-19T02:27:58;19.00;;;15.50;;
68940;SDS011;55982;51.476;7.552;2022-08-19T02:30:24;21.15;;;17.25;;
68940;SDS011;55982;51.476;7.552;2022-08-19T02:32:50;20.85;;;17.48;;
68940;SDS011;55982;51.476;7.552;2022-08-19T02:35:17;24.42;;;18.88;;
68940;SDS011;55982;51.476;7.552;2022-08-19T02:37:43;25.77;;;17.92;;
68940;SDS011;55982;51.476;7.552;2022-08-19T02:40:49;26.73;;;19.75;;
68940;SDS011;55982;51.476;7.552;2022-08-19T02:43:16;23.42;;;17.70;;
68940;SDS011;55982;51.476;7.552;2022-08-19T02:45:42;23.40;;;18.50;;
68940;SDS011;55982;51.476;7.552;2022-08-19T02:48:07;29.65;;;18.42;;
68940;SDS011;55982;51.476;7.552;2022-08-19T02:50:36;25.80;;;18.92;;
68940;SDS011;55982;51.476;7.552;2022-08-19T02:53:03;27.02;;;18.60;;
68940;SDS011;55982;51.476;7.552;2022-08-19T02:55:29;34.03;;;21.65;;
68940;SDS011;55982;51.476;7.552;2022-08-19T02:57:54;30.33;;;20.52;;
68940;SDS011;55982;51.476;7.552;2022-08-19T03:00:20;26.65;;;20.05;;
68940;SDS011;55982;51.476;7.552;2022-08-19T03:02:45;30.77;;;21.55;;
68940;SDS011;55982;51.476;7.552;2022-08-19T03:05:11;28.50;;;21.88;;
68940;SDS011;55982;51.476;7.552;2022-08-19T03:07:38;32.15;;;22.48;;
68940;SDS011;55982;51.476;7.552;2022-08-19T03:10:03;29.30;;;21.10;;
68940;SDS011;55982;51.476;7.552;2022-08-19T03:12:29;36.25;;;23.73;;
68940;SDS011;55982;51.476;7.552;2022-08-19T03:14:55;34.30;;;23.48;;
68940;SDS011;55982;51.476;7.552;2022-08-19T03:17:21;35.83;;;24.13;;
68940;SDS011;55982;51.476;7.552;2022-08-19T03:19:46;32.63;;;22.20;;
68940;SDS011;55982;51.476;7.552;2022-08-19T03:22:11;30.00;;;21.60;;
68940;SDS011;55982;51.476;7.552;2022-08-19T03:24:37;35.72;;;23.65;;
68940;SDS011;55982;51.476;7.552;2022-08-19T03:27:04;32.00;;;22.42;;
68940;SDS011;55982;51.476;7.552;2022-08-19T03:29:30;31.65;;;23.48;;
68940;SDS011;55982;51.476;7.552;2022-08-19T03:31:57;29.00;;;21.60;;
68940;SDS011;55982;51.476;7.552;2022-08-19T03:34:27;34.60;;;21.48;;
68940;SDS011;55982;51.476;7.552;2022-08-19T03:36:57;33.30;;;21.83;;
68940;SDS011;55982;51.476;7.552;2022-08-19T03:39:24;32.67;;;23.27;;
68940;SDS011;55982;51.476;7.552;2022-08-19T03:41:51;36.15;;;24.63;;
68940;SDS011;55982;51.476;7.552;2022-08-19T03:44:20;32.35;;;23.90;;
68940;SDS011;55982;51.476;7.552;2022-08-19T03:46:48;39.95;;;26.77;;
68940;SDS011;55982;51.476;7.552;2022-08-19T03:49:16;37.63;;;26.52;;
68940;SDS011;55982;51.476;7.552;2022-08-19T03:51:43;32.42;;;24.73;;
68940;SDS011;55982;51.476;7.552;2022-08-19T03:54:09;35.83;;;25.98;;
68940;SDS011;55982;51.476;7.552;2022-08-19T03:56:37;33.63;;;24.60;;
68940;SDS011;55982;51.476;7.552;2022-08-19T03:59:04;32.42;;;21.95;;
68940;SDS011;55982;51.476;7.552;2022-08-19T04:01:32;31.92;;;22.92;;
68940;SDS011;55982;51.476;7.552;2022-08-19T04:03:57;36.45;;;26.20;;
68940;SDS011;55982;51.476;7.552;2022-08-19T04:06:34;37.00;;;25.90;;
68940;SDS011;55982;51.476;7.552;2022-08-19T04:09:03;41.03;;;28.20;;
68940;SDS011;55982;51.476;7.552;2022-08-19T04:11:33;44.67;;;30.70;;
68940;SDS011;55982;51.476;7.552;2022-08-19T04:14:00;42.30;;;29.25;;
68940;SDS011;55982;51.476;7.552;2022-08-19T04:16:26;51.60;;;32.55;;
68940;SDS011;55982;51.476;7.552;2022-08-19T04:18:53;49.42;;;32.97;;
68940;SDS011;55982;51.476;7.552;2022-08-19T04:21:21;53.58;;;33.13;;
68940;SDS011;55982;51.476;7.552;2022-08-19T04:23:49;53.20;;;33.42;;
68940;SDS011;55982;51.476;7.552;2022-08-19T04:26:15;47.92;;;31.90;;
68940;SDS011;55982;51.476;7.552;2022-08-19T04:28:42;54.53;;;34.13;;
68940;SDS011;55982;51.476;7.552;2022-08-19T04:31:12;53.08;;;34.53;;
68940;SDS011;55982;51.476;7.552;2022-08-19T04:33:43;52.15;;;33.38;;
68940;SDS011;55982;51.476;7.552;2022-08-19T04:36:15;53.88;;;35.38;;
68940;SDS011;55982;51.476;7.552;2022-08-19T04:38:42;54.20;;;34.10;;
68940;SDS011;55982;51.476;7.552;2022-08-19T04:41:08;55.75;;;35.10;;
68940;SDS011;55982;51.476;7.552;2022-08-19T04:43:51;54.15;;;35.03;;
68940;SDS011;55982;51.476;7.552;2022-08-19T04:46:17;52.50;;;34.85;;
68940;SDS011;55982;51.476;7.552;2022-08-19T04:48:43;57.83;;;37.92;;
68940;SDS011;55982;51.476;7.552;2022-08-19T04:51:09;67.65;;;40.97;;
68940;SDS011;55982;51.476;7.552;2022-08-19T04:53:38;65.55;;;42.88;;
68940;SDS011;55982;51.476;7.552;2022-08-19T04:56:15;63.95;;;40.17;;
68940;SDS011;55982;51.476;7.552;2022-08-19T04:58:43;61.58;;;40.60;;
68940;SDS011;55982;51.476;7.552;2022-08-19T05:01:13;63.85;;;41.25;;
68940;SDS011;55982;51.476;7.552;2022-08-19T05:03:49;61.72;;;41.13;;
68940;SDS011;55982;51.476;7.552;2022-08-19T05:06:15;65.68;;;42.00;;
68940;SDS011;55982;51.476;7.552;2022-08-19T05:08:43;63.70;;;40.65;;
68940;SDS011;55982;51.476;7.552;2022-08-19T05:11:11;62.10;;;41.78;;
68940;SDS011;55982;51.476;7.552;2022-08-19T05:13:39;68.07;;;43.83;;
68940;SDS011;55982;51.476;7.552;2022-08-19T05:16:04;63.88;;;41.50;;
68940;SDS011;55982;51.476;7.552;2022-08-19T05:18:30;61.03;;;40.63;;
68940;SDS011;55982;51.476;7.552;2022-08-19T05:21:15;67.28;;;41.97;;
68940;SDS011;55982;51.476;7.552;2022-08-19T05:24:01;65.72;;;42.03;;
68940;SDS011;55982;51.476;7.552;2022-08-19T05:26:27;59.55;;;40.03;;
68940;SDS011;55982;51.476;7.552;2022-08-19T05:28:53;58.45;;;40.00;;
68940;SDS011;55982;51.476;7.552;2022-08-19T05:31:18;57.08;;;39.70;;
68940;SDS011;55982;51.476;7.552;2022-08-19T05:33:44;60.65;;;40.20;;
68940;SDS011;55982;51.476;7.552;2022-08-19T05:36:10;58.50;;;37.65;;
68940;SDS011;55982;51.476;7.552;2022-08-19T05:38:35;48.97;;;35.38;;
68940;SDS011;55982;51.476;7.552;2022-08-19T05:41:11;49.22;;;36.38;;
68940;SDS011;55982;51.476;7.552;2022-08-19T05:43:41;51.65;;;35.65;;
68940;SDS011;55982;51.476;7.552;2022-08-19T05:46:07;47.33;;;35.60;;
68940;SDS011;55982;51.476;7.552;2022-08-19T05:48:33;47.35;;;33.97;;
68940;SDS011;55982;51.476;7.552;2022-08-19T05:51:03;46.78;;;34.42;;
68940;SDS011;55982;51.476;7.552;2022-08-19T05:53:31;47.30;;;33.72;;
68940;SDS011;55982;51.476;7.552;2022-08-19T05:55:57;47.70;;;33.53;;
68940;SDS011;55982;51.476;7.552;2022-08-19T05:58:23;41.80;;;31.58;;
68940;SDS011;55982;51.476;7.552;2022-08-19T06:00:49;45.55;;;33.45;;
68940;SDS011;55982;51.476;7.552;2022-08-19T06:03:15;43.83;;;32.28;;
68940;SDS011;55982;51.476;7.552;2022-08-19T06:05:41;40.88;;;32.13;;
68940;SDS011;55982;51.476;7.552;2022-08-19T06:08:06;41.15;;;31.33;;
68940;SDS011;55982;51.476;7.552;2022-08-19T06:10:32;42.90;;;31.15;;
68940;SDS011;55982;51.476;7.552;2022-08-19T06:12:58;41.03;;;31.95;;
68940;SDS011;55982;51.476;7.552;2022-08-19T06:15:23;42.35;;;30.52;;
68940;SDS011;55982;51.476;7.552;2022-08-19T06:17:50;41.38;;;29.73;;
68940;SDS011;55982;51.476;7.552;2022-08-19T06:20:16;38.17;;;29.52;;
68940;SDS011;55982;51.476;7.552;2022-08-19T06:22:44;41.70;;;29.58;;
68940;SDS011;55982;51.476;7.552;2022-08-19T06:25:11;38.90;;;27.70;;
68940;SDS011;55982;51.476;7.552;2022-08-19T06:27:38;41.50;;;27.15;;
68940;SDS011;55982;51.476;7.552;2022-08-19T06:30:04;36.30;;;26.00;;
68940;SDS011;55982;51.476;7.552;2022-08-19T06:32:30;35.80;;;25.35;;
68940;SDS011;55982;51.476;7.552;2022-08-19T06:34:56;37.10;;;26.50;;
68940;SDS011;55982;51.476;7.552;2022-08-19T06:37:22;33.10;;;25.00;;
68940;SDS011;55982;51.476;7.552;2022-08-19T06:39:47;36.00;;;25.17;;
68940;SDS011;55982;51.476;7.552;2022-08-19T06:42:14;31.83;;;23.35;;
68940;SDS011;55982;51.476;7.552;2022-08-19T06:44:44;31.73;;;24.95;;
68940;SDS011;55982;51.476;7.552;2022-08-19T06:47:14;35.22;;;24.23;;
68940;SDS011;55982;51.476;7.552;2022-08-19T06:49:43;30.35;;;22.17;;
68940;SDS011;55982;51.476;7.552;2022-08-19T06:52:08;26.35;;;21.98;;
68940;SDS011;55982;51.476;7.552;2022-08-19T06:54:37;32.00;;;21.65;;
68940;SDS011;55982;51.476;7.552;2022-08-19T06:57:02;24.52;;;19.98;;
68940;SDS011;55982;51.476;7.552;2022-08-19T06:59:28;25.50;;;20.42;;
68940;SDS011;55982;51.476;7.552;2022-08-19T07:01:57;26.92;;;18.98;;
68940;SDS011;55982;51.476;7.552;2022-08-19T07:04:26;25.80;;;18.10;;
68940;SDS011;55982;51.476;7.552;2022-08-19T07:07:01;24.63;;;18.35;;
68940;SDS011;55982;51.476;7.552;2022-08-19T07:09:32;22.38;;;18.05;;
68940;SDS011;55982;51.476;7.552;2022-08-19T07:11:57;23.83;;;17.67;;
68940;SDS011;55982;51.476;7.552;2022-08-19T07:14:24;22.30;;;17.25;;
68940;SDS011;55982;51.476;7.552;2022-08-19T07:16:52;21.65;;;16.27;;
68940;SDS011;55982;51.476;7.552;2022-08-19T07:19:22;20.15;;;16.25;;
68940;SDS011;55982;51.476;7.552;2022-08-19T07:21:52;24.02;;;16.17;;
68940;SDS011;55982;51.476;7.552;2022-08-19T07:24:19;20.08;;;15.95;;
68940;SDS011;55982;51.476;7.552;2022-08-19T07:26:48;22.23;;;16.17;;
68940;SDS011;55982;51.476;7.552;2022-08-19T07:29:15;19.45;;;15.10;;
68940;SDS011;55982;51.476;7.552;2022-08-19T07:31:41;21.42;;;15.07;;
68940;SDS011;55982;51.476;7.552;2022-08-19T07:34:09;17.77;;;14.95;;
68940;SDS011;55982;51.476;7.552;2022-08-19T07:36:37;18.25;;;14.40;;
68940;SDS011;55982;51.476;7.552;2022-08-19T07:39:07;22.85;;;15.75;;
68940;SDS011;55982;51.476;7.552;2022-08-19T07:41:34;23.27;;;16.58;;
68940;SDS011;55982;51.476;7.552;2022-08-19T07:44:02;19.60;;;15.80;;
68940;SDS011;55982;51.476;7.552;2022-08-19T07:46:32;24.92;;;17.55;;
68940;SDS011;55982;51.476;7.552;2022-08-19T07:48:59;18.05;;;14.07;;
68940;SDS011;55982;51.476;7.552;2022-08-19T07:51:25;22.63;;;14.30;;
68940;SDS011;55982;51.476;7.552;2022-08-19T07:53:52;21.42;;;15.30;;
68940;SDS011;55982;51.476;7.552;2022-08-19T07:56:18;23.10;;;13.68;;
68940;SDS011;55982;51.476;7.552;2022-08-19T07:58:46;22.02;;;15.85;;
68940;SDS011;55982;51.476;7.552;2022-08-19T08:01:15;19.40;;;13.75;;
68940;SDS011;55982;51.476;7.552;2022-08-19T08:03:46;19.38;;;14.27;;
68940;SDS011;55982;51.476;7.552;2022-08-19T08:06:31;19.23;;;13.63;;
68940;SDS011;55982;51.476;7.552;2022-08-19T08:09:16;24.33;;;14.05;;
68940;SDS011;55982;51.476;7.552;2022-08-19T08:11:55;21.33;;;13.60;;
68940;SDS011;55982;51.476;7.552;2022-08-19T08:14:25;20.08;;;12.05;;
68940;SDS011;55982;51.476;7.552;2022-08-19T08:16:55;15.70;;;12.63;;
68940;SDS011;55982;51.476;7.552;2022-08-19T08:19:23;21.88;;;14.15;;
68940;SDS011;55982;51.476;7.552;2022-08-19T08:21:49;16.20;;;13.38;;
68940;SDS011;55982;51.476;7.552;2022-08-19T08:24:16;18.80;;;14.75;;
68940;SDS011;55982;51.476;7.552;2022-08-19T08:26:42;20.58;;;14.98;;
68940;SDS011;55982;51.476;7.552;2022-08-19T08:29:09;15.23;;;13.55;;
68940;SDS011;55982;51.476;7.552;2022-08-19T08:31:36;16.98;;;13.15;;
68940;SDS011;55982;51.476;7.552;2022-08-19T08:34:02;17.33;;;13.95;;
68940;SDS011;55982;51.476;7.552;2022-08-19T08:36:28;18.20;;;13.65;;
68940;SDS011;55982;51.476;7.552;2022-08-19T08:38:54;20.27;;;14.20;;
68940;SDS011;55982;51.476;7.552;2022-08-19T08:47:17;17.88;;;13.05;;
68940;SDS011;55982;51.476;7.552;2022-08-19T08:52:31;20.27;;;14.25;;
68940;SDS011;55982;51.476;7.552;2022-08-19T08:55:08;16.20;;;14.35;;
68940;SDS011;55982;51.476;7.552;2022-08-19T08:57:38;19.48;;;14.50;;
68940;SDS011;55982;51.476;7.552;2022-08-19T09:00:06;17.33;;;13.23;;
68940;SDS011;55982;51.476;7.552;2022-08-19T09:02:35;24.02;;;14.52;;
68940;SDS011;55982;51.476;7.552;2022-08-19T09:05:00;12.93;;;11.48;;
68940;SDS011;55982;51.476;7.552;2022-08-19T09:07:44;18.27;;;12.23;;
68940;SDS011;55982;51.476;7.552;2022-08-19T09:10:39;14.70;;;11.65;;
68940;SDS011;55982;51.476;7.552;2022-08-19T09:13:11;14.93;;;11.50;;
68940;SDS011;55982;51.476;7.552;2022-08-19T09:15:52;16.45;;;10.15;;
68940;SDS011;55982;51.476;7.552;2022-08-19T09:18:22;13.93;;;9.88;;
68940;SDS011;55982;51.476;7.552;2022-08-19T09:20:48;10.18;;;9.00;;
68940;SDS011;55982;51.476;7.552;2022-08-19T09:23:13;11.25;;;10.15;;
68940;SDS011;55982;51.476;7.552;2022-08-19T09:25:39;13.50;;;11.15;;
68940;SDS011;55982;51.476;7.552;2022-08-19T09:28:05;13.55;;;11.45;;
68940;SDS011;55982;51.476;7.552;2022-08-19T09:30:32;12.35;;;10.10;;
68940;SDS011;55982;51.476;7.552;2022-08-19T09:33:04;14.85;;;10.75;;
68940;SDS011;55982;51.476;7.552;2022-08-19T09:35:30;12.73;;;10.65;;
68940;SDS011;55982;51.476;7.552;2022-08-19T09:37:55;11.77;;;10.57;;
68940;SDS011;55982;51.476;7.552;2022-08-19T09:40:22;16.23;;;12.27;;
68940;SDS011;55982;51.476;7.552;2022-08-19T09:42:48;16.00;;;13.00;;
68940;SDS011;55982;51.476;7.552;2022-08-19T09:45:14;14.20;;;10.85;;
68940;SDS011;55982;51.476;7.552;2022-08-19T09:47:41;14.10;;;11.38;;
68940;SDS011;55982;51.476;7.552;2022-08-19T09:50:08;13.82;;;11.45;;
68940;SDS011;55982;51.476;7.552;2022-08-19T09:52:36;16.02;;;12.68;;
68940;SDS011;55982;51.476;7.552;2022-08-19T09:55:05;13.88;;;12.02;;
68940;SDS011;55982;51.476;7.552;2022-08-19T09:57:33;13.30;;;11.00;;
68940;SDS011;55982;51.476;7.552;2022-08-19T09:59:59;15.73;;;10.40;;
68940;SDS011;55982;51.476;7.552;2022-08-19T10:02:24;11.27;;;9.85;;
68940;SDS011;55982;51.476;7.552;2022-08-19T10:04:50;14.88;;;10.80;;
68940;SDS011;55982;51.476;7.552;2022-08-19T10:07:34;12.27;;;10.02;;
68940;SDS011;55982;51.476;7.552;2022-08-19T10:10:00;12.02;;;10.80;;
68940;SDS011;55982;51.476;7.552;2022-08-19T10:12:26;16.73;;;13.68;;
68940;SDS011;55982;51.476;7.552;2022-08-19T10:14:51;14.07;;;12.57;;
68940;SDS011;55982;51.476;7.552;2022-08-19T10:17:18;11.98;;;10.70;;
68940;SDS011;55982;51.476;7.552;2022-08-19T10:19:44;15.45;;;12.57;;
68940;SDS011;55982;51.476;7.552;2022-08-19T10:22:09;13.45;;;9.80;;
68940;SDS011;55982;51.476;7.552;2022-08-19T10:24:39;19.08;;;14.05;;
68940;SDS011;55982;51.476;7.552;2022-08-19T10:27:04;15.30;;;12.52;;
68940;SDS011;55982;51.476;7.552;2022-08-19T10:29:31;11.43;;;10.23;;
68940;SDS011;55982;51.476;7.552;2022-08-19T10:31:57;20.05;;;13.10;;
68940;SDS011;55982;51.476;7.552;2022-08-19T10:34:25;18.10;;;13.90;;
68940;SDS011;55982;51.476;7.552;2022-08-19T10:36:50;15.60;;;13.85;;
68940;SDS011;55982;51.476;7.552;2022-08-19T10:39:18;21.50;;;16.25;;
68940;SDS011;55982;51.476;7.552;2022-08-19T10:41:47;17.27;;;15.52;;
68940;SDS011;55982;51.476;7.552;2022-08-19T10:44:14;21.90;;;16.33;;
68940;SDS011;55982;51.476;7.552;2022-08-19T10:46:42;16.90;;;15.07;;
68940;SDS011;55982;51.476;7.552;2022-08-19T10:49:10;17.52;;;13.45;;
68940;SDS011;55982;51.476;7.552;2022-08-19T10:51:37;16.33;;;14.60;;
68940;SDS011;55982;51.476;7.552;2022-08-19T10:54:29;17.55;;;14.48;;
68940;SDS011;55982;51.476;7.552;2022-08-19T10:57:13;17.73;;;14.55;;
68940;SDS011;55982;51.476;7.552;2022-08-19T10:59:40;14.57;;;12.70;;
68940;SDS011;55982;51.476;7.552;2022-08-19T11:02:07;15.48;;;13.88;;
68940;SDS011;55982;51.476;7.552;2022-08-19T11:04:36;16.08;;;13.98;;
68940;SDS011;55982;51.476;7.552;2022-08-19T11:07:03;18.65;;;12.15;;
68940;SDS011;55982;51.476;7.552;2022-08-19T11:09:30;14.18;;;12.57;;
68940;SDS011;55982;51.476;7.552;2022-08-19T11:11:55;19.98;;;15.65;;
68940;SDS011;55982;51.476;7.552;2022-08-19T11:14:22;15.65;;;12.88;;
68940;SDS011;55982;51.476;7.552;2022-08-19T11:16:49;16.88;;;14.45;;
68940;SDS011;55982;51.476;7.552;2022-08-19T11:19:15;18.90;;;14.75;;
68940;SDS011;55982;51.476;7.552;2022-08-19T11:21:44;17.77;;;12.63;;
68940;SDS011;55982;51.476;7.552;2022-08-19T11:24:16;15.55;;;13.07;;
68940;SDS011;55982;51.476;7.552;2022-08-19T11:26:45;12.90;;;11.60;;
68940;SDS011;55982;51.476;7.552;2022-08-19T11:29:11;16.83;;;11.45;;
68940;SDS011;55982;51.476;7.552;2022-08-19T11:31:39;13.18;;;11.10;;
68940;SDS011;55982;51.476;7.552;2022-08-19T11:34:07;12.40;;;9.68;;
68940;SDS011;55982;51.476;7.552;2022-08-19T11:36:37;13.52;;;11.15;;
68940;SDS011;55982;51.476;7.552;2022-08-19T11:39:04;12.88;;;10.60;;
68940;SDS011;55982;51.476;7.552;2022-08-19T11:41:31;10.80;;;8.95;;
68940;SDS011;55982;51.476;7.552;2022-08-19T11:43:56;10.88;;;7.65;;
68940;SDS011;55982;51.476;7.552;2022-08-19T11:46:23;11.20;;;8.90;;
68940;SDS011;55982;51.476;7.552;2022-08-19T11:48:50;7.68;;;6.93;;
68940;SDS011;55982;51.476;7.552;2022-08-19T11:51:17;7.90;;;6.40;;
68940;SDS011;55982;51.476;7.552;2022-08-19T11:53:44;9.57;;;8.15;;
68940;SDS011;55982;51.476;7.552;2022-08-19T11:56:10;11.65;;;9.23;;
68940;SDS011;55982;51.476;7.552;2022-08-19T11:58:36;11.98;;;10.75;;
68940;SDS011;55982;51.476;7.552;2022-08-19T12:01:06;11.88;;;9.90;;
68940;SDS011;55982;51.476;7.552;2022-08-19T12:03:36;11.35;;;10.02;;
68940;SDS011;55982;51.476;7.552;2022-08-19T12:06:05;10.52;;;9.23;;
68940;SDS011;55982;51.476;7.552;2022-08-19T12:08:32;11.60;;;9.70;;
68940;SDS011;55982;51.476;7.552;2022-08-19T12:10:57;10.68;;;8.50;;
68940;SDS011;55982;51.476;7.552;2022-08-19T12:13:23;15.00;;;8.38;;
68940;SDS011;55982;51.476;7.552;2022-08-19T12:15:49;10.30;;;8.40;;
68940;SDS011;55982;51.476;7.552;2022-08-19T12:18:14;10.75;;;8.63;;
68940;SDS011;55982;51.476;7.552;2022-08-19T12:20:40;10.82;;;7.75;;
68940;SDS011;55982;51.476;7.552;2022-08-19T12:23:07;9.98;;;8.98;;
68940;SDS011;55982;51.476;7.552;2022-08-19T12:25:34;14.38;;;12.98;;
68940;SDS011;55982;51.476;7.552;2022-08-19T12:28:00;20.25;;;15.10;;
68940;SDS011;55982;51.476;7.552;2022-08-19T12:30:26;15.10;;;13.45;;
68940;SDS011;55982;51.476;7.552;2022-08-19T12:32:51;17.55;;;15.18;;
68940;SDS011;55982;51.476;7.552;2022-08-19T12:35:18;16.42;;;14.50;;
68940;SDS011;55982;51.476;7.552;2022-08-19T12:37:45;16.10;;;14.45;;
68940;SDS011;55982;51.476;7.552;2022-08-19T12:40:11;16.75;;;15.00;;
68940;SDS011;55982;51.476;7.552;2022-08-19T12:42:38;18.02;;;16.20;;
68940;SDS011;55982;51.476;7.552;2022-08-19T12:45:11;17.30;;;15.35;;
68940;SDS011;55982;51.476;7.552;2022-08-19T12:47:38;20.80;;;14.05;;
68940;SDS011;55982;51.476;7.552;2022-08-19T12:50:04;16.15;;;14.65;;
68940;SDS011;55982;51.476;7.552;2022-08-19T12:52:33;15.10;;;13.65;;
68940;SDS011;55982;51.476;7.552;2022-08-19T12:55:02;19.13;;;12.75;;
68940;SDS011;55982;51.476;7.552;2022-08-19T12:57:29;14.50;;;12.18;;
68940;SDS011;55982;51.476;7.552;2022-08-19T12:59:58;11.90;;;10.70;;
68940;SDS011;55982;51.476;7.552;2022-08-19T13:02:25;15.25;;;11.63;;
68940;SDS011;55982;51.476;7.552;2022-08-19T13:04:51;13.45;;;10.38;;
68940;SDS011;55982;51.476;7.552;2022-08-19T13:07:16;11.77;;;10.48;;
68940;SDS011;55982;51.476;7.552;2022-08-19T13:09:42;12.20;;;10.23;;
68940;SDS011;55982;51.476;7.552;2022-08-19T13:12:08;12.35;;;10.70;;
68940;SDS011;55982;51.476;7.552;2022-08-19T13:14:38;16.40;;;12.52;;
68940;SDS011;55982;51.476;7.552;2022-08-19T13:17:05;13.18;;;11.88;;
68940;SDS011;55982;51.476;7.552;2022-08-19T13:19:31;13.85;;;12.30;;
68940;SDS011;55982;51.476;7.552;2022-08-19T13:21:56;14.95;;;12.38;;
68940;SDS011;55982;51.476;7.552;2022-08-19T13:24:22;12.77;;;11.48;;
68940;SDS011;55982;51.476;7.552;2022-08-19T13:26:48;19.38;;;14.13;;
68940;SDS011;55982;51.476;7.552;2022-08-19T13:29:13;14.77;;;13.27;;
68940;SDS011;55982;51.476;7.552;2022-08-19T13:31:58;12.88;;;11.27;;
68940;SDS011;55982;51.476;7.552;2022-08-19T13:34:42;13.55;;;12.10;;
68940;SDS011;55982;51.476;7.552;2022-08-19T13:37:07;13.20;;;11.98;;
68940;SDS011;55982;51.476;7.552;2022-08-19T13:39:33;11.45;;;10.25;;
68940;SDS011;55982;51.476;7.552;2022-08-19T13:42:00;17.00;;;11.13;;
68940;SDS011;55982;51.476;7.552;2022-08-19T13:44:26;16.90;;;11.73;;
68940;SDS011;55982;51.476;7.552;2022-08-19T13:46:54;12.77;;;11.38;;
68940;SDS011;55982;51.476;7.552;2022-08-19T13:49:25;11.88;;;10.05;;
68940;SDS011;55982;51.476;7.552;2022-08-19T13:51:55;12.20;;;10.00;;
68940;SDS011;55982;51.476;7.552;2022-08-19T13:54:21;10.50;;;9.05;;
68940;SDS011;55982;51.476;7.552;2022-08-19T13:56:46;9.90;;;8.90;;
68940;SDS011;55982;51.476;7.552;2022-08-19T13:59:12;11.77;;;9.20;;
68940;SDS011;55982;51.476;7.552;2022-08-19T14:01:38;9.48;;;8.48;;
68940;SDS011;55982;51.476;7.552;2022-08-19T14:04:06;11.52;;;9.68;;
68940;SDS011;55982;51.476;7.552;2022-08-19T14:06:32;9.77;;;8.57;;
68940;SDS011;55982;51.476;7.552;2022-08-19T14:08:58;9.73;;;8.82;;
68940;SDS011;55982;51.476;7.552;2022-08-19T14:11:23;11.95;;;8.88;;
68940;SDS011;55982;51.476;7.552;2022-08-19T14:13:49;9.45;;;8.20;;
68940;SDS011;55982;51.476;7.552;2022-08-19T14:16:15;12.05;;;7.72;;
68940;SDS011;55982;51.476;7.552;2022-08-19T14:18:41;12.13;;;8.23;;
68940;SDS011;55982;51.476;7.552;2022-08-19T14:21:08;9.25;;;7.90;;
68940;SDS011;55982;51.476;7.552;2022-08-19T14:23:44;9.80;;;7.78;;
68940;SDS011;55982;51.476;7.552;2022-08-19T14:26:12;9.68;;;7.45;;
68940;SDS011;55982;51.476;7.552;2022-08-19T14:28:39;6.97;;;6.38;;
68940;SDS011;55982;51.476;7.552;2022-08-19T14:31:06;11.70;;;7.45;;
68940;SDS011;55982;51.476;7.552;2022-08-19T14:33:33;8.18;;;7.32;;
68940;SDS011;55982;51.476;7.552;2022-08-19T14:35:58;12.10;;;7.05;;